Relevés horaires Jungfraujoch (Suisse)


Relevés horaires à Jungfraujoch - Samedi 29 Oct. 2016
Heure UTC1 Température [°C] Vent [km/h] Hum. [%] Pres.4 [hPa] Visi. [Km] Nébu. [octa] Préc.5 [mm] Cond.
2m. Res. Ros. Dir.2 Vit. Moy. Raf.3
23:00 0.5 -3.4 -12.8 NO 13.0 -- 33.3 36 700(-0.3/3h) -- -- -- --
22:00 -0.1 -5.7 -12.0 NO 22.2 -- 44.4 40 700(-0.3/3h) -- -- -- --
21:00 0.4 -4.5 -12.7 ONO 18.5 -- 77.8 37 700(-0.3/3h) -- -- -- --
20:00 0.1 -7.2 -11.0 ONO 38.9 -- 77.8 43 700(-0.4/3h) -- -- -- --
19:00 -0.6 -5.8 -8.7 NO 18.5 -- 51.9 54 700(-0.3/3h) -- -- -- --
18:00 -0.3 -6.6 -8.3 NO 27.8 -- 53.7 55 700(-0.2/3h) 60 0/8 -- --
17:00 -1.0 -6.6 -9.2 NO 20.4 -- 53.7 54 700(-0.3/3h) -- -- -- --
16:00 0.1 -5.9 -9.3 NO 25.9 -- 51.9 49 700(-0.5/3h) -- -- -- --
15:00 0.5 -4.7 -9.5 NO 20.4 -- 44.4 47 700(-0.9/3h) >70 0/8 -- --
14:00 0.4 -4.8 -8.6 ONO 20.4 -- 38.9 51 700(-0.9/3h) -- -- -- --
13:00 0.1 -5.7 -7.9 ONO 24.1 -- 40.7 55 700(-1.1/3h) -- -- -- --
12:00 -0.7 -6.2 -8.3 ONO 20.4 -- 55.6 56 700(-0.4/3h) >70 1/8 -- --
11:00 -0.7 -6.4 -7.3 ONO 22.2 -- 37.0 61 700(-0.1/3h) -- -- -- --
10:00 -0.7 -5.2 -8.6 NO 14.8 -- 37.0 55 700(0.3/3h) -- -- -- --
09:00 -0.5 -7.1 -12.0 ONO 29.6 -- 55.6 41 700(0.3/3h) >70 3/8 -- --
08:00 0.0 -6.6 -16.1 ONO 31.5 -- 50.0 28 700(0.0/3h) -- -- -- --
07:00 -0.5 -7.5 -9.1 ONO 33.3 -- 46.3 52 700(-0.2/3h) -- -- -- --
06:00 -0.5 -6.9 -11.9 ONO 27.8 -- 37.0 42 700(-0.3/3h) >70 4/8 -- --
05:00 -0.1 -6.6 -26.5 NO 29.6 -- 35.2 11 700(-0.3/3h) -- -- -- --
04:00 -0.2 -6.5 -30.8 NO 27.8 -- 33.3 8 700(-0.3/3h) -- -- -- --
03:00 -0.4 -6.8 -29.5 NO 27.8 -- 35.2 9 700(-0.6/3h) -- -- -- --
02:00 -0.7 -7.1 -27.2 NO 27.8 -- 33.3 11 700(-0.7/3h) -- -- -- --
01:00 -0.4 -7 -27.1 NO 29.6 -- 35.2 11 700(-0.6/3h) -- -- -- --
00:00 0.6 -5.6 -24.7 NO 29.6 -- 40.7 13 700(-0.6/3h) -- -- -- --

1 Coordinated Universal Time. Actuellement il est 19:00 locale et 17:00 UTC.

2 Le vent souffle depuis la direction indiquée vers la direction oposée.

3 Les rafales max. sont disponible 40 min après l'heure du relevé.

4 Pour les stations d'altitude (plus de 600m) le géopotentiel du niveau le plus proche de la pression obligatoire est indiqué.

5 Les stations disposant d'un diffuseur peuvent indiquer "trace". Cela signifie que des précipitations ont touchés le sol mais que la quantité est inférieure à 0.1 mm.

Copyright

Les données affichées sur cette page sont la propriété exclusive de Météo Suisse.

Récapitulatif de la journée
Température [°C] Vent [km/h] Ensoleillement4 [h] Precipitations totale5 [mm] Pression [Hpa]
Min1 Max.2 Moy.3 Max. Min Max.
-0.7 1.4 0 77.8 8 h 12 min 0 700.0 700.0

1 Température minimale relevée entre 18:00 UTC la veille et 18:00 UTC le jour donné.

2 Température maximale relevée entre 06:00 UTC le jour donné et 06:00 UTC le lendemain.

3 Vent moyen de la journée basé sur les relevés horaires.

4 Ensoleillement en heures relevé entre 06:00 UTC la veille et 06:00 UTC le jour donné.

5 Précipitations totales tombées entre 06:00 UTC la jour donné et 06:00 UTC le lendemain.

Graphiques horaires